createdAt,value
2022-08-10T03:47:59.131Z,2.53
2022-08-10T03:50:03.901Z,2.30
2022-08-10T03:52:24.773Z,2.90
2022-08-10T03:54:27.824Z,2.60
2022-08-10T03:56:32.371Z,2.60
2022-08-10T03:58:34.891Z,2.10
2022-08-10T04:00:37.798Z,2.20
2022-08-10T04:02:48.188Z,3.03
2022-08-10T04:04:50.291Z,2.20
2022-08-10T04:06:57.628Z,2.93
2022-08-10T04:08:59.473Z,2.60
2022-08-10T04:11:01.202Z,2.20
2022-08-10T04:13:02.962Z,2.67
2022-08-10T04:15:05.128Z,2.47
2022-08-10T04:17:09.680Z,2.63
2022-08-10T04:19:18.520Z,2.40
2022-08-10T04:21:36.714Z,2.57
2022-08-10T04:23:43.388Z,2.20
2022-08-10T04:25:45.571Z,2.70
2022-08-10T04:27:48.976Z,2.13
2022-08-10T04:29:51.632Z,3.00
2022-08-10T04:31:53.678Z,2.37
2022-08-10T04:33:57.501Z,2.90
2022-08-10T04:36:00.592Z,2.83
2022-08-10T04:38:04.012Z,2.40
2022-08-10T04:40:06.351Z,2.80
2022-08-10T04:42:28.141Z,2.70
2022-08-10T04:44:29.961Z,2.27
2022-08-10T04:46:56.409Z,2.50
2022-08-10T04:48:59.782Z,2.30
2022-08-10T04:51:04.505Z,2.60
2022-08-10T04:53:06.319Z,2.70
2022-08-10T04:55:09.100Z,2.30
2022-08-10T04:57:11.007Z,2.53
2022-08-10T04:59:12.952Z,2.43
2022-08-10T05:01:15.337Z,2.37
2022-08-10T05:03:17.179Z,2.00
2022-08-10T05:05:19.225Z,2.63
2022-08-10T05:07:21.048Z,2.23
2022-08-10T05:09:25.171Z,2.20
2022-08-10T05:11:27.093Z,2.20
2022-08-10T05:13:29.478Z,2.10
2022-08-10T05:15:31.476Z,2.47
2022-08-10T05:17:34.648Z,2.33
2022-08-10T05:20:02.333Z,2.40
2022-08-10T05:22:04.907Z,2.57
2022-08-10T05:24:07.075Z,2.23
2022-08-10T05:26:09.219Z,2.40
2022-08-10T05:28:11.438Z,2.30
2022-08-10T05:30:18.388Z,2.30
2022-08-10T05:32:20.161Z,2.20
2022-08-10T05:34:26.610Z,2.20
2022-08-10T05:36:29.402Z,2.80
2022-08-10T05:38:32.548Z,2.80
2022-08-10T05:40:37.630Z,2.33
2022-08-10T05:42:41.187Z,2.00
2022-08-10T05:44:43.010Z,2.40
2022-08-10T05:46:44.744Z,2.63
2022-08-10T05:48:59.281Z,2.07
2022-08-10T05:51:02.752Z,2.13
2022-08-10T05:53:39.070Z,2.10
2022-08-10T05:55:30.660Z,2.03
2022-08-10T05:57:33.504Z,2.20
2022-08-10T06:00:33.688Z,2.30
2022-08-10T06:02:32.922Z,2.40
2022-08-10T06:04:30.281Z,2.53
2022-08-10T06:06:34.139Z,2.23
2022-08-10T06:08:38.162Z,2.30
2022-08-10T06:12:23.161Z,2.47
2022-08-10T06:13:30.451Z,2.13
2022-08-10T06:15:51.395Z,1.90
2022-08-10T06:17:58.997Z,2.30
2022-08-10T06:20:04.694Z,2.80
2022-08-10T06:22:07.112Z,2.27
2022-08-10T06:24:11.174Z,2.27
2022-08-10T06:26:17.383Z,2.40
2022-08-10T06:28:23.164Z,2.13
2022-08-10T06:30:27.106Z,2.10
2022-08-10T06:32:30.830Z,2.27
2022-08-10T06:34:40.032Z,2.00
2022-08-10T06:36:44.077Z,2.27
2022-08-10T06:38:46.675Z,2.20
2022-08-10T06:40:49.113Z,1.80
2022-08-10T06:42:52.633Z,2.50
2022-08-10T06:45:18.656Z,2.10
2022-08-10T06:47:24.103Z,2.47
2022-08-10T06:49:25.976Z,2.30
2022-08-10T06:51:34.288Z,2.00
2022-08-10T06:53:52.974Z,2.20
2022-08-10T06:56:03.661Z,2.73
2022-08-10T06:58:06.944Z,2.17
2022-08-10T07:00:20.074Z,2.20
2022-08-10T07:02:28.162Z,2.37
2022-08-10T07:04:47.111Z,2.10
2022-08-10T07:06:49.672Z,2.07
2022-08-10T07:08:52.979Z,2.10
2022-08-10T07:10:55.381Z,2.13
2022-08-10T07:13:00.919Z,2.58
2022-08-10T07:15:04.253Z,2.00
2022-08-10T07:17:16.109Z,2.10
2022-08-10T07:19:19.713Z,2.13
2022-08-10T07:21:22.702Z,2.25
2022-08-10T07:23:56.757Z,1.80
2022-08-10T07:25:49.216Z,2.08
2022-08-10T07:27:59.636Z,1.80
2022-08-10T07:30:03.770Z,1.60
2022-08-10T07:32:06.956Z,1.98
2022-08-10T07:34:09.779Z,1.73
2022-08-10T07:36:12.417Z,1.90
2022-08-10T07:38:21.051Z,1.83
2022-08-10T07:40:23.860Z,2.05
2022-08-10T07:42:27.350Z,1.77
2022-08-10T07:44:34.757Z,1.90
2022-08-10T07:46:40.988Z,2.35
2022-08-10T07:48:50.919Z,2.10
2022-08-10T07:51:00.129Z,2.15
2022-08-10T07:53:04.445Z,1.80
2022-08-10T07:55:10.070Z,1.65
2022-08-10T07:57:30.689Z,1.73
2022-08-10T07:59:39.375Z,2.17
2022-08-10T08:01:50.350Z,1.90
2022-08-10T08:04:10.905Z,1.80
2022-08-10T08:06:16.429Z,2.05
2022-08-10T08:10:19.159Z,1.83
2022-08-10T08:12:21.185Z,1.98
2022-08-10T08:14:23.820Z,1.88
2022-08-10T08:16:26.031Z,1.92
2022-08-10T08:18:29.175Z,1.67
2022-08-10T08:20:32.063Z,1.95
2022-08-10T08:24:06.195Z,1.80
2022-08-10T08:24:59.256Z,1.60
2022-08-10T08:27:04.966Z,1.98
2022-08-10T08:29:10.758Z,1.70
2022-08-10T08:31:16.910Z,1.90
2022-08-10T08:33:41.905Z,1.70
2022-08-10T08:35:44.109Z,1.92
2022-08-10T08:38:33.738Z,2.85
2022-08-10T08:40:18.395Z,1.90
2022-08-10T08:42:49.479Z,1.80
2022-08-10T08:45:07.833Z,2.13
2022-08-10T08:48:03.233Z,1.73
2022-08-10T08:50:07.930Z,1.60
2022-08-10T08:52:25.777Z,1.70
2022-08-10T08:55:03.879Z,2.20
2022-08-10T08:57:46.267Z,1.70
2022-08-10T08:59:57.036Z,1.80
2022-08-10T09:02:18.172Z,2.00
2022-08-10T09:04:52.461Z,1.55
2022-08-10T09:07:07.250Z,1.88
2022-08-10T09:09:53.475Z,1.73
2022-08-10T09:12:22.674Z,1.60
2022-08-10T09:14:59.728Z,2.00
2022-08-10T09:17:35.481Z,2.10
2022-08-10T09:19:57.687Z,1.73
2022-08-10T09:22:19.648Z,1.80
2022-08-10T09:24:43.257Z,1.73
2022-08-10T09:26:52.857Z,1.85
2022-08-10T09:29:11.644Z,1.60
2022-08-10T09:31:22.383Z,1.67
2022-08-10T09:36:21.604Z,1.52
2022-08-10T09:36:33.398Z,1.98
2022-08-10T09:40:05.802Z,1.98
2022-08-10T09:41:57.376Z,1.63
2022-08-10T09:44:08.053Z,1.65
2022-08-10T09:46:21.938Z,1.70
2022-08-10T09:48:43.493Z,1.63
2022-08-10T09:54:14.125Z,1.65
2022-08-10T09:56:29.450Z,1.60
2022-08-10T09:58:42.408Z,1.55
2022-08-10T10:01:02.790Z,1.80
2022-08-10T10:03:26.316Z,1.70
2022-08-10T10:05:51.317Z,1.70
2022-08-10T10:08:05.846Z,2.42
2022-08-10T10:10:13.371Z,1.98
2022-08-10T10:12:25.597Z,1.80
2022-08-10T10:15:24.824Z,1.50
2022-08-10T10:18:04.268Z,1.52
2022-08-10T10:20:25.929Z,1.70
2022-08-10T10:22:50.426Z,1.60
2022-08-10T10:25:23.245Z,1.92
2022-08-10T10:27:48.202Z,1.77
2022-08-10T10:30:03.638Z,1.70
2022-08-10T10:32:32.143Z,1.80
2022-08-10T10:34:53.866Z,1.70
2022-08-10T10:36:58.533Z,1.40
2022-08-10T10:39:01.875Z,1.67
2022-08-10T10:41:55.872Z,1.52
2022-08-10T10:44:27.773Z,1.67
2022-08-10T10:46:51.544Z,1.77
2022-08-10T10:49:11.296Z,1.60
2022-08-10T10:51:16.221Z,1.73
2022-08-10T10:53:44.209Z,1.60
2022-08-10T10:56:15.071Z,1.50
2022-08-10T10:58:20.406Z,1.50
2022-08-10T11:00:29.412Z,1.40
2022-08-10T11:02:45.181Z,1.65
2022-08-10T11:05:01.754Z,1.73
2022-08-10T11:07:31.939Z,1.85
2022-08-10T11:10:03.468Z,1.70
2022-08-10T11:12:33.971Z,1.55
2022-08-10T11:14:44.397Z,1.40
2022-08-10T11:17:00.251Z,1.65
2022-08-10T11:19:17.309Z,1.80
2022-08-10T11:21:51.780Z,2.22
2022-08-10T11:24:48.979Z,1.67
2022-08-10T11:27:24.681Z,1.90
2022-08-10T11:29:36.925Z,1.77
2022-08-10T11:31:46.453Z,1.90
2022-08-10T11:36:40.004Z,2.00
2022-08-10T11:39:14.292Z,2.08
2022-08-10T11:42:11.816Z,1.65
2022-08-10T11:44:26.493Z,1.88
2022-08-10T11:46:33.600Z,1.60
2022-08-10T11:48:53.602Z,1.50
2022-08-10T11:51:04.632Z,1.73
2022-08-10T11:53:09.604Z,1.60
2022-08-10T11:55:20.527Z,2.05
2022-08-10T11:57:54.780Z,1.45
2022-08-10T11:59:59.256Z,1.60
2022-08-10T12:02:02.876Z,1.80
2022-08-10T12:04:12.286Z,1.60
2022-08-10T12:06:28.937Z,2.22
2022-08-10T12:10:06.567Z,1.77
2022-08-10T12:10:59.030Z,2.05
2022-08-10T12:13:24.017Z,1.65
2022-08-10T12:15:48.758Z,1.80
2022-08-10T12:17:55.867Z,1.80
2022-08-10T12:20:10.818Z,1.52
2022-08-10T12:22:16.862Z,1.52
2022-08-10T12:24:30.861Z,1.75
2022-08-10T12:26:40.060Z,1.60
2022-08-10T12:29:13.163Z,1.98
2022-08-10T12:31:17.096Z,1.80
2022-08-10T12:34:03.564Z,1.90
2022-08-10T12:36:22.997Z,1.95
2022-08-10T12:38:46.538Z,1.80
2022-08-10T12:41:00.542Z,1.65
2022-08-10T12:44:05.514Z,1.77
2022-08-10T12:45:42.277Z,2.10
2022-08-10T12:47:48.400Z,1.55
2022-08-10T12:50:30.014Z,1.80
2022-08-10T12:52:32.846Z,1.50
2022-08-10T12:54:36.723Z,1.70
2022-08-10T12:56:51.500Z,1.67
2022-08-10T12:58:58.767Z,1.70
2022-08-10T13:01:16.737Z,1.80
2022-08-10T13:04:21.767Z,1.52
2022-08-10T13:06:02.442Z,1.50
2022-08-10T13:08:27.901Z,1.60
2022-08-10T13:10:30.097Z,2.00
2022-08-10T13:12:40.304Z,1.50
2022-08-10T13:15:43.294Z,2.10
2022-08-10T13:17:40.075Z,1.90
2022-08-10T13:19:55.037Z,1.88
2022-08-10T13:22:02.768Z,1.73
2022-08-10T13:24:13.505Z,1.60
2022-08-10T13:26:19.269Z,1.80
2022-08-10T13:28:35.470Z,1.60
2022-08-10T13:30:40.945Z,2.03
2022-08-10T13:32:49.620Z,1.58
2022-08-10T13:34:52.492Z,1.70
2022-08-10T13:37:01.301Z,1.50
2022-08-10T13:39:04.619Z,1.40
2022-08-10T13:41:08.733Z,1.50
2022-08-10T13:43:10.836Z,1.60
2022-08-10T13:45:20.457Z,1.70
2022-08-10T13:47:48.169Z,1.90
2022-08-10T13:50:10.771Z,1.80
2022-08-10T13:52:21.220Z,1.50
2022-08-10T13:54:27.338Z,1.48
2022-08-10T13:56:31.814Z,1.83
2022-08-10T13:58:38.317Z,1.60
2022-08-10T14:00:41.460Z,1.77
2022-08-10T14:03:10.584Z,1.60
2022-08-10T14:05:13.702Z,1.55
2022-08-10T14:07:16.975Z,1.63
2022-08-10T14:09:26.504Z,1.45
2022-08-10T14:11:30.472Z,1.60
2022-08-10T14:13:37.487Z,1.42
2022-08-10T14:15:40.020Z,1.60
2022-08-10T14:17:45.075Z,1.55
2022-08-10T14:19:51.516Z,1.80
2022-08-10T14:22:01.578Z,1.50
2022-08-10T14:24:03.511Z,1.90
2022-08-10T14:26:09.462Z,1.50
2022-08-10T14:28:12.107Z,1.73
2022-08-10T14:30:17.728Z,2.05
2022-08-10T14:32:23.539Z,1.55
2022-08-10T14:36:15.251Z,1.83
2022-08-10T14:37:06.119Z,1.70
2022-08-10T14:39:12.092Z,1.60
2022-08-10T14:42:02.544Z,1.40
2022-08-10T14:43:42.095Z,1.70
2022-08-10T14:45:48.478Z,1.77
2022-08-10T14:48:03.759Z,1.77
2022-08-10T14:50:07.772Z,2.03
2022-08-10T14:52:10.914Z,1.67
2022-08-10T14:54:15.784Z,1.50
2022-08-10T14:56:26.443Z,1.67
2022-08-10T14:58:33.185Z,3.05
2022-08-10T15:00:43.022Z,1.27
2022-08-10T15:02:53.425Z,1.67
2022-08-10T15:05:00.020Z,1.80
2022-08-10T15:07:12.354Z,1.70
2022-08-10T15:09:19.823Z,1.83
2022-08-10T15:12:15.347Z,1.65
2022-08-10T15:14:14.801Z,1.88
2022-08-10T15:16:15.281Z,1.70
2022-08-10T15:18:17.645Z,1.73
2022-08-10T15:20:22.626Z,1.33
2022-08-10T15:22:41.748Z,1.80
2022-08-10T15:25:01.044Z,1.80
2022-08-10T15:27:08.714Z,1.67
2022-08-10T15:29:24.172Z,1.52
2022-08-10T15:31:30.900Z,1.65
2022-08-10T15:34:04.486Z,1.65
2022-08-10T15:36:27.572Z,1.88
2022-08-10T15:38:44.537Z,1.52
2022-08-10T15:40:56.757Z,1.70
2022-08-10T15:43:25.150Z,1.60
2022-08-10T15:45:28.197Z,1.92
2022-08-10T15:47:45.065Z,1.48
2022-08-10T15:50:09.266Z,1.63
2022-08-10T15:53:00.127Z,1.60
2022-08-10T15:54:42.919Z,1.70
2022-08-10T15:57:02.699Z,1.60
2022-08-10T15:59:14.466Z,1.60
2022-08-10T16:02:14.717Z,1.92
2022-08-10T16:04:10.854Z,1.67
2022-08-10T16:06:24.878Z,1.83
2022-08-10T16:08:35.133Z,1.90
2022-08-10T16:11:03.545Z,1.70
2022-08-10T16:13:50.807Z,1.67
2022-08-10T16:15:31.929Z,1.80
2022-08-10T16:17:54.689Z,2.00
2022-08-10T16:20:00.237Z,1.80
2022-08-10T16:22:36.146Z,1.67
2022-08-10T16:24:32.613Z,1.92
2022-08-10T16:26:41.268Z,1.65
2022-08-10T16:28:55.982Z,1.55
2022-08-10T16:30:59.092Z,1.55
2022-08-10T16:33:08.629Z,2.05
2022-08-10T16:35:13.574Z,1.80
2022-08-10T16:37:17.045Z,1.65
2022-08-10T16:40:00.366Z,1.80
2022-08-10T16:42:14.158Z,1.70
2022-08-10T16:44:22.704Z,1.67
2022-08-10T16:46:25.977Z,1.98
2022-08-10T16:48:50.205Z,2.03
2022-08-10T16:50:55.475Z,2.47
2022-08-10T16:53:01.866Z,1.90
2022-08-10T16:55:24.328Z,1.98
2022-08-10T16:57:42.668Z,1.77
2022-08-10T16:59:46.369Z,2.15
2022-08-10T17:01:51.559Z,2.22
2022-08-10T17:04:06.815Z,2.05
2022-08-10T17:06:15.978Z,2.30
2022-08-10T17:08:20.331Z,2.45
2022-08-10T17:10:22.928Z,1.88
2022-08-10T17:12:30.262Z,1.75
2022-08-10T17:14:32.172Z,1.95
2022-08-10T17:16:40.604Z,1.83
2022-08-10T17:18:46.718Z,2.30
2022-08-10T17:20:51.252Z,2.22
2022-08-10T17:22:57.047Z,1.77
2022-08-10T17:25:19.144Z,1.70
2022-08-10T17:28:03.969Z,2.00
2022-08-10T17:29:50.730Z,1.65
2022-08-10T17:32:06.705Z,2.05
2022-08-10T17:34:24.489Z,2.00
2022-08-10T17:36:36.776Z,1.83
2022-08-10T17:38:39.412Z,2.15
2022-08-10T17:40:56.325Z,1.77
2022-08-10T17:42:59.292Z,2.10
2022-08-10T17:45:03.057Z,2.00
2022-08-10T17:47:11.241Z,2.35
2022-08-10T17:49:18.215Z,1.70
2022-08-10T17:51:25.346Z,1.98
2022-08-10T17:53:43.334Z,2.38
2022-08-10T17:55:48.217Z,2.38
2022-08-10T17:57:50.424Z,2.00
2022-08-10T18:00:07.615Z,2.08
2022-08-10T18:02:23.122Z,2.17
2022-08-10T18:04:27.384Z,2.58
2022-08-10T18:06:31.032Z,2.27
2022-08-10T18:08:39.315Z,2.40
2022-08-10T18:10:42.962Z,2.37
2022-08-10T18:12:51.107Z,2.40
2022-08-10T18:14:55.150Z,2.30
2022-08-10T18:16:58.891Z,2.23
2022-08-10T18:19:11.733Z,2.17
2022-08-10T18:21:19.371Z,2.10
2022-08-10T18:23:29.060Z,2.27
2022-08-10T18:25:34.925Z,2.40
2022-08-10T18:27:46.609Z,2.10
2022-08-10T18:30:07.430Z,2.30
2022-08-10T18:32:11.123Z,2.67
2022-08-10T18:34:18.435Z,2.50
2022-08-10T18:36:21.966Z,2.30
2022-08-10T18:38:26.411Z,2.13
2022-08-10T18:40:35.526Z,2.40
2022-08-10T18:42:49.164Z,2.37
2022-08-10T18:45:01.497Z,2.20
2022-08-10T18:47:11.675Z,2.30
2022-08-10T18:49:19.502Z,2.33
2022-08-10T18:51:26.823Z,2.70
2022-08-10T18:53:28.495Z,2.67
2022-08-10T18:55:46.343Z,2.10
2022-08-10T18:58:21.292Z,2.50
2022-08-10T19:00:31.915Z,2.60
2022-08-10T19:03:01.734Z,2.20
2022-08-10T19:05:42.626Z,2.20
2022-08-10T19:08:31.037Z,2.80
2022-08-10T19:10:48.469Z,2.63
2022-08-10T19:13:22.107Z,2.20
2022-08-10T19:15:36.545Z,2.47
2022-08-10T19:18:19.747Z,2.33
2022-08-10T19:20:37.808Z,2.80
2022-08-10T19:23:05.074Z,2.63
2022-08-10T19:26:41.289Z,2.50
2022-08-10T19:28:15.232Z,2.37
2022-08-10T19:30:18.930Z,2.10
2022-08-10T19:32:51.879Z,2.53
2022-08-10T19:35:00.889Z,2.10
2022-08-10T19:37:05.585Z,2.67
2022-08-10T19:39:13.278Z,2.40
2022-08-10T19:41:44.754Z,2.60
2022-08-10T19:44:00.709Z,2.57
2022-08-10T19:46:37.678Z,2.77
2022-08-10T19:49:09.007Z,2.40
2022-08-10T19:51:25.210Z,2.70
2022-08-10T19:53:32.364Z,2.33
2022-08-10T19:56:13.128Z,2.23
2022-08-10T19:58:41.088Z,2.50
2022-08-10T20:01:04.973Z,2.37
2022-08-10T20:03:19.160Z,2.57
2022-08-10T20:05:34.055Z,1.80
2022-08-10T20:07:48.854Z,2.30
2022-08-10T20:10:01.597Z,2.37
2022-08-10T20:12:09.997Z,2.40
2022-08-10T20:14:21.396Z,2.53
2022-08-10T20:16:31.196Z,2.30
2022-08-10T20:19:21.867Z,2.23
2022-08-10T20:21:40.137Z,3.10
2022-08-10T20:24:05.527Z,2.67
2022-08-10T20:26:32.239Z,2.33
2022-08-10T20:29:03.039Z,2.13
2022-08-10T20:31:18.038Z,3.40
2022-08-10T20:33:29.894Z,3.03
2022-08-10T20:35:45.955Z,2.77
2022-08-10T20:38:04.074Z,2.30
2022-08-10T20:40:06.407Z,2.60
2022-08-10T20:42:46.702Z,2.50
2022-08-10T20:45:05.970Z,2.50
2022-08-10T20:47:37.389Z,2.27
2022-08-10T20:50:33.577Z,2.50
2022-08-10T20:52:36.700Z,2.57
2022-08-10T20:54:52.171Z,2.30
2022-08-10T20:57:53.593Z,2.50
2022-08-10T21:00:04.003Z,2.77
2022-08-10T21:02:30.937Z,2.10
2022-08-10T21:04:53.005Z,2.13
2022-08-10T21:07:58.320Z,2.37
2022-08-10T21:10:31.132Z,2.50
2022-08-10T21:13:10.342Z,2.37
2022-08-10T21:16:04.283Z,2.70
2022-08-10T21:18:43.896Z,2.30
2022-08-10T21:21:16.786Z,2.20
2022-08-10T21:23:20.370Z,2.57
2022-08-10T21:25:29.430Z,2.70
2022-08-10T21:27:55.242Z,2.07
2022-08-10T21:30:09.901Z,2.43
2022-08-10T21:32:43.887Z,2.77
2022-08-10T21:35:20.092Z,2.27
2022-08-10T21:37:58.991Z,2.47
2022-08-10T21:40:32.292Z,2.10
2022-08-10T21:43:22.910Z,1.93
2022-08-10T21:46:16.328Z,2.27
2022-08-10T21:48:57.278Z,2.30
2022-08-10T21:52:01.611Z,2.70
2022-08-10T21:54:21.798Z,2.30
2022-08-10T21:56:48.419Z,2.10
